sensor_id;sensor_type;location;lat;lon;timestamp;temperature;humidity
1391;DHT22;690;51.454;7.194;2023-04-03T00:00:30;4.10;1.00
1391;DHT22;690;51.454;7.194;2023-04-03T00:02:57;4.10;1.00
1391;DHT22;690;51.454;7.194;2023-04-03T00:05:25;4.10;1.00
1391;DHT22;690;51.454;7.194;2023-04-03T00:07:52;4.10;1.00
1391;DHT22;690;51.454;7.194;2023-04-03T00:10:19;4.10;1.00
1391;DHT22;690;51.454;7.194;2023-04-03T00:12:48;4.10;1.00
1391;DHT22;690;51.454;7.194;2023-04-03T00:15:15;4.10;1.00
1391;DHT22;690;51.454;7.194;2023-04-03T00:17:42;4.10;1.00
1391;DHT22;690;51.454;7.194;2023-04-03T00:20:09;4.00;1.00
1391;DHT22;690;51.454;7.194;2023-04-03T00:22:38;4.10;1.00
1391;DHT22;690;51.454;7.194;2023-04-03T00:25:06;4.00;1.00
1391;DHT22;690;51.454;7.194;2023-04-03T00:27:33;4.10;1.00
1391;DHT22;690;51.454;7.194;2023-04-03T00:30:00;4.00;1.00
1391;DHT22;690;51.454;7.194;2023-04-03T00:32:26;4.00;1.00
1391;DHT22;690;51.454;7.194;2023-04-03T00:34:53;4.00;1.00
1391;DHT22;690;51.454;7.194;2023-04-03T00:37:20;4.00;1.00
1391;DHT22;690;51.454;7.194;2023-04-03T00:39:48;4.00;1.00
1391;DHT22;690;51.454;7.194;2023-04-03T00:42:16;4.00;1.00
1391;DHT22;690;51.454;7.194;2023-04-03T00:47:47;3.90;1.00
1391;DHT22;690;51.454;7.194;2023-04-03T00:50:14;3.90;1.00
1391;DHT22;690;51.454;7.194;2023-04-03T00:52:41;3.90;1.00
1391;DHT22;690;51.454;7.194;2023-04-03T00:55:09;3.80;1.00
1391;DHT22;690;51.454;7.194;2023-04-03T00:57:37;3.80;1.00
1391;DHT22;690;51.454;7.194;2023-04-03T01:00:08;3.80;1.00
1391;DHT22;690;51.454;7.194;2023-04-03T01:02:35;3.80;1.00
1391;DHT22;690;51.454;7.194;2023-04-03T01:05:03;3.80;1.00
1391;DHT22;690;51.454;7.194;2023-04-03T01:07:31;3.80;1.00
1391;DHT22;690;51.454;7.194;2023-04-03T01:10:03;3.80;1.00
1391;DHT22;690;51.454;7.194;2023-04-03T01:12:34;3.80;1.00
1391;DHT22;690;51.454;7.194;2023-04-03T01:15:04;3.80;1.00
1391;DHT22;690;51.454;7.194;2023-04-03T01:17:33;3.70;1.00
1391;DHT22;690;51.454;7.194;2023-04-03T01:23:18;3.70;1.00
1391;DHT22;690;51.454;7.194;2023-04-03T01:25:50;3.70;1.00
1391;DHT22;690;51.454;7.194;2023-04-03T01:28:20;3.60;1.00
1391;DHT22;690;51.454;7.194;2023-04-03T01:30:50;3.60;1.00
1391;DHT22;690;51.454;7.194;2023-04-03T01:33:19;3.60;1.00
1391;DHT22;690;51.454;7.194;2023-04-03T01:35:46;3.60;2.90
1391;DHT22;690;51.454;7.194;2023-04-03T01:38:13;3.60;8.20
1391;DHT22;690;51.454;7.194;2023-04-03T01:40:40;3.60;5.40
1391;DHT22;690;51.454;7.194;2023-04-03T01:43:07;3.60;1.00
1391;DHT22;690;51.454;7.194;2023-04-03T01:45:34;3.60;1.00
1391;DHT22;690;51.454;7.194;2023-04-03T01:48:01;3.60;1.00
1391;DHT22;690;51.454;7.194;2023-04-03T01:50:30;3.50;1.00
1391;DHT22;690;51.454;7.194;2023-04-03T01:52:57;3.50;1.00
1391;DHT22;690;51.454;7.194;2023-04-03T01:55:24;3.50;1.00
1391;DHT22;690;51.454;7.194;2023-04-03T01:57:51;3.40;1.00
1391;DHT22;690;51.454;7.194;2023-04-03T02:00:18;3.50;3.00
1391;DHT22;690;51.454;7.194;2023-04-03T02:02:45;3.40;1.00
1391;DHT22;690;51.454;7.194;2023-04-03T02:05:12;3.40;1.00
1391;DHT22;690;51.454;7.194;2023-04-03T02:07:40;3.40;1.00
1391;DHT22;690;51.454;7.194;2023-04-03T02:10:07;3.40;1.00
1391;DHT22;690;51.454;7.194;2023-04-03T02:12:34;3.40;1.00
1391;DHT22;690;51.454;7.194;2023-04-03T02:15:05;3.30;1.00
1391;DHT22;690;51.454;7.194;2023-04-03T02:17:32;3.30;14.10
1391;DHT22;690;51.454;7.194;2023-04-03T02:19:59;3.30;9.30
1391;DHT22;690;51.454;7.194;2023-04-03T02:22:26;3.40;4.50
1391;DHT22;690;51.454;7.194;2023-04-03T02:24:54;3.30;1.00
1391;DHT22;690;51.454;7.194;2023-04-03T02:27:21;3.30;1.00
1391;DHT22;690;51.454;7.194;2023-04-03T02:29:48;3.30;1.00
1391;DHT22;690;51.454;7.194;2023-04-03T02:32:15;3.30;1.00
1391;DHT22;690;51.454;7.194;2023-04-03T02:34:41;3.30;1.00
1391;DHT22;690;51.454;7.194;2023-04-03T02:37:08;3.30;1.00
1391;DHT22;690;51.454;7.194;2023-04-03T02:39:35;3.30;1.00
1391;DHT22;690;51.454;7.194;2023-04-03T02:42:04;3.20;1.00
1391;DHT22;690;51.454;7.194;2023-04-03T02:44:30;3.20;1.00
1391;DHT22;690;51.454;7.194;2023-04-03T02:46:57;3.20;1.00
1391;DHT22;690;51.454;7.194;2023-04-03T02:49:24;3.10;1.00
1391;DHT22;690;51.454;7.194;2023-04-03T02:51:51;3.10;1.00
1391;DHT22;690;51.454;7.194;2023-04-03T02:54:18;3.10;1.00
1391;DHT22;690;51.454;7.194;2023-04-03T02:56:45;3.10;1.00
1391;DHT22;690;51.454;7.194;2023-04-03T02:59:13;3.10;1.00
1391;DHT22;690;51.454;7.194;2023-04-03T03:01:40;3.10;1.00
1391;DHT22;690;51.454;7.194;2023-04-03T03:04:07;3.10;1.00
1391;DHT22;690;51.454;7.194;2023-04-03T03:06:34;3.00;1.00
1391;DHT22;690;51.454;7.194;2023-04-03T03:09:01;3.00;1.00
1391;DHT22;690;51.454;7.194;2023-04-03T03:11:29;3.00;1.00
1391;DHT22;690;51.454;7.194;2023-04-03T03:13:56;3.00;1.00
1391;DHT22;690;51.454;7.194;2023-04-03T03:16:24;3.00;1.00
1391;DHT22;690;51.454;7.194;2023-04-03T03:18:51;2.90;1.00
1391;DHT22;690;51.454;7.194;2023-04-03T03:21:17;2.90;7.70
1391;DHT22;690;51.454;7.194;2023-04-03T03:23:44;2.90;12.00
1391;DHT22;690;51.454;7.194;2023-04-03T03:26:11;2.90;19.10
1391;DHT22;690;51.454;7.194;2023-04-03T03:28:39;3.00;17.70
1391;DHT22;690;51.454;7.194;2023-04-03T03:31:06;2.90;21.50
1391;DHT22;690;51.454;7.194;2023-04-03T03:33:35;2.90;19.20
1391;DHT22;690;51.454;7.194;2023-04-03T03:36:02;2.90;22.20
1391;DHT22;690;51.454;7.194;2023-04-03T03:38:29;2.90;48.30
1391;DHT22;690;51.454;7.194;2023-04-03T03:40:56;2.90;66.30
1391;DHT22;690;51.454;7.194;2023-04-03T03:43:23;2.90;50.70
1391;DHT22;690;51.454;7.194;2023-04-03T03:45:51;2.90;43.60
1391;DHT22;690;51.454;7.194;2023-04-03T03:48:18;2.90;18.00
1391;DHT22;690;51.454;7.194;2023-04-03T03:50:46;2.90;7.90
1391;DHT22;690;51.454;7.194;2023-04-03T03:53:14;2.90;3.90
1391;DHT22;690;51.454;7.194;2023-04-03T03:55:41;2.90;1.00
1391;DHT22;690;51.454;7.194;2023-04-03T03:58:08;2.90;1.00
1391;DHT22;690;51.454;7.194;2023-04-03T04:00:35;2.90;1.00
1391;DHT22;690;51.454;7.194;2023-04-03T04:03:02;2.90;1.00
1391;DHT22;690;51.454;7.194;2023-04-03T04:05:28;2.90;1.00
1391;DHT22;690;51.454;7.194;2023-04-03T04:07:57;2.80;1.00
1391;DHT22;690;51.454;7.194;2023-04-03T04:10:24;2.80;1.00
1391;DHT22;690;51.454;7.194;2023-04-03T04:12:52;2.70;1.00
1391;DHT22;690;51.454;7.194;2023-04-03T04:15:19;2.70;1.00
1391;DHT22;690;51.454;7.194;2023-04-03T04:17:47;2.70;1.00
1391;DHT22;690;51.454;7.194;2023-04-03T04:20:14;2.70;1.00
1391;DHT22;690;51.454;7.194;2023-04-03T04:22:41;2.70;1.00
1391;DHT22;690;51.454;7.194;2023-04-03T04:25:09;2.70;1.00
1391;DHT22;690;51.454;7.194;2023-04-03T04:27:36;2.70;1.00
1391;DHT22;690;51.454;7.194;2023-04-03T04:30:04;2.60;1.00
1391;DHT22;690;51.454;7.194;2023-04-03T04:32:31;2.70;1.00
1391;DHT22;690;51.454;7.194;2023-04-03T04:34:58;2.60;1.00
1391;DHT22;690;51.454;7.194;2023-04-03T04:37:25;2.60;1.00
1391;DHT22;690;51.454;7.194;2023-04-03T04:39:52;2.60;1.00
1391;DHT22;690;51.454;7.194;2023-04-03T04:42:20;2.50;1.00
1391;DHT22;690;51.454;7.194;2023-04-03T04:44:47;2.50;1.00
1391;DHT22;690;51.454;7.194;2023-04-03T04:47:14;2.50;1.00
1391;DHT22;690;51.454;7.194;2023-04-03T04:49:41;2.50;1.00
1391;DHT22;690;51.454;7.194;2023-04-03T04:52:07;2.40;1.00
1391;DHT22;690;51.454;7.194;2023-04-03T04:54:35;2.40;1.00
1391;DHT22;690;51.454;7.194;2023-04-03T04:57:01;2.30;1.00
1391;DHT22;690;51.454;7.194;2023-04-03T04:59:29;2.30;1.00
1391;DHT22;690;51.454;7.194;2023-04-03T05:01:56;2.20;1.00
1391;DHT22;690;51.454;7.194;2023-04-03T05:04:23;2.20;1.00
1391;DHT22;690;51.454;7.194;2023-04-03T05:06:50;2.20;1.00
1391;DHT22;690;51.454;7.194;2023-04-03T05:09:17;2.20;1.00
1391;DHT22;690;51.454;7.194;2023-04-03T05:11:45;2.20;1.00
1391;DHT22;690;51.454;7.194;2023-04-03T05:14:12;2.20;1.00
1391;DHT22;690;51.454;7.194;2023-04-03T05:16:40;2.20;1.00
1391;DHT22;690;51.454;7.194;2023-04-03T05:19:07;2.20;1.00
1391;DHT22;690;51.454;7.194;2023-04-03T05:21:34;2.20;1.00
1391;DHT22;690;51.454;7.194;2023-04-03T05:24:01;2.20;1.00
1391;DHT22;690;51.454;7.194;2023-04-03T05:26:29;2.20;1.00
1391;DHT22;690;51.454;7.194;2023-04-03T05:28:56;2.20;1.00
1391;DHT22;690;51.454;7.194;2023-04-03T05:31:23;2.20;1.00
1391;DHT22;690;51.454;7.194;2023-04-03T05:33:51;2.30;1.00
1391;DHT22;690;51.454;7.194;2023-04-03T05:36:18;2.30;3.60
1391;DHT22;690;51.454;7.194;2023-04-03T05:38:45;2.20;16.30
1391;DHT22;690;51.454;7.194;2023-04-03T05:41:12;2.30;19.40
1391;DHT22;690;51.454;7.194;2023-04-03T05:43:39;2.30;13.20
1391;DHT22;690;51.454;7.194;2023-04-03T05:46:09;2.30;20.10
1391;DHT22;690;51.454;7.194;2023-04-03T05:48:36;2.30;34.60
1391;DHT22;690;51.454;7.194;2023-04-03T05:51:06;2.40;55.80
1391;DHT22;690;51.454;7.194;2023-04-03T05:53:36;2.40;65.90
1391;DHT22;690;51.454;7.194;2023-04-03T05:56:03;2.40;92.40
1391;DHT22;690;51.454;7.194;2023-04-03T05:58:30;2.40;98.70
1391;DHT22;690;51.454;7.194;2023-04-03T06:00:57;2.50;99.90
1391;DHT22;690;51.454;7.194;2023-04-03T06:03:24;2.50;99.90
1391;DHT22;690;51.454;7.194;2023-04-03T06:05:52;2.60;99.90
1391;DHT22;690;51.454;7.194;2023-04-03T06:08:20;2.60;99.90
1391;DHT22;690;51.454;7.194;2023-04-03T06:10:47;2.60;99.90
1391;DHT22;690;51.454;7.194;2023-04-03T06:13:14;2.70;99.90
1391;DHT22;690;51.454;7.194;2023-04-03T06:15:41;2.70;99.90
1391;DHT22;690;51.454;7.194;2023-04-03T06:18:08;2.80;99.90
1391;DHT22;690;51.454;7.194;2023-04-03T06:20:36;2.80;99.90
1391;DHT22;690;51.454;7.194;2023-04-03T06:23:03;2.90;98.90
1391;DHT22;690;51.454;7.194;2023-04-03T06:25:31;2.90;99.90
1391;DHT22;690;51.454;7.194;2023-04-03T06:27:59;3.00;99.90
1391;DHT22;690;51.454;7.194;2023-04-03T06:30:26;3.00;97.30
1391;DHT22;690;51.454;7.194;2023-04-03T06:32:53;3.10;51.30
1391;DHT22;690;51.454;7.194;2023-04-03T06:35:21;3.10;63.60
1391;DHT22;690;51.454;7.194;2023-04-03T06:37:49;3.10;61.50
1391;DHT22;690;51.454;7.194;2023-04-03T06:40:19;3.10;48.30
1391;DHT22;690;51.454;7.194;2023-04-03T06:42:48;3.30;23.40
1391;DHT22;690;51.454;7.194;2023-04-03T06:45:15;3.30;1.00
1391;DHT22;690;51.454;7.194;2023-04-03T06:47:42;3.30;1.00
1391;DHT22;690;51.454;7.194;2023-04-03T06:50:11;3.30;1.00
1391;DHT22;690;51.454;7.194;2023-04-03T06:52:39;3.20;1.00
1391;DHT22;690;51.454;7.194;2023-04-03T06:55:07;3.30;1.00
1391;DHT22;690;51.454;7.194;2023-04-03T06:57:35;3.30;1.00
1391;DHT22;690;51.454;7.194;2023-04-03T07:00:05;3.40;1.00
1391;DHT22;690;51.454;7.194;2023-04-03T07:02:32;3.50;1.00
1391;DHT22;690;51.454;7.194;2023-04-03T07:04:59;3.60;1.00
1391;DHT22;690;51.454;7.194;2023-04-03T07:07:26;3.70;1.00
1391;DHT22;690;51.454;7.194;2023-04-03T07:09:53;3.70;1.00
1391;DHT22;690;51.454;7.194;2023-04-03T07:12:20;3.80;1.00
1391;DHT22;690;51.454;7.194;2023-04-03T07:14:47;3.80;1.00
1391;DHT22;690;51.454;7.194;2023-04-03T07:17:15;3.80;1.00
1391;DHT22;690;51.454;7.194;2023-04-03T07:19:42;3.90;1.00
1391;DHT22;690;51.454;7.194;2023-04-03T07:22:08;3.90;1.00
1391;DHT22;690;51.454;7.194;2023-04-03T07:24:36;4.00;1.00
1391;DHT22;690;51.454;7.194;2023-04-03T07:27:03;4.10;1.00
1391;DHT22;690;51.454;7.194;2023-04-03T07:29:30;4.20;1.00
1391;DHT22;690;51.454;7.194;2023-04-03T07:31:58;4.30;1.00
1391;DHT22;690;51.454;7.194;2023-04-03T07:34:26;4.30;1.00
1391;DHT22;690;51.454;7.194;2023-04-03T07:36:53;4.40;1.00
1391;DHT22;690;51.454;7.194;2023-04-03T07:39:20;4.50;1.00
1391;DHT22;690;51.454;7.194;2023-04-03T07:41:47;4.60;1.00
1391;DHT22;690;51.454;7.194;2023-04-03T07:44:14;4.70;1.00
1391;DHT22;690;51.454;7.194;2023-04-03T07:46:41;4.70;1.00
1391;DHT22;690;51.454;7.194;2023-04-03T07:49:08;4.80;1.00
1391;DHT22;690;51.454;7.194;2023-04-03T07:51:36;4.90;1.00
1391;DHT22;690;51.454;7.194;2023-04-03T07:54:03;4.80;1.00
1391;DHT22;690;51.454;7.194;2023-04-03T07:56:30;4.80;1.00
1391;DHT22;690;51.454;7.194;2023-04-03T07:58:57;4.90;1.00
1391;DHT22;690;51.454;7.194;2023-04-03T08:01:24;4.90;99.90
1391;DHT22;690;51.454;7.194;2023-04-03T08:03:51;5.00;99.90
1391;DHT22;690;51.454;7.194;2023-04-03T08:06:18;5.00;99.90
1391;DHT22;690;51.454;7.194;2023-04-03T08:08:46;5.10;99.90
1391;DHT22;690;51.454;7.194;2023-04-03T08:11:14;5.20;99.90
1391;DHT22;690;51.454;7.194;2023-04-03T08:13:41;5.20;99.90
1391;DHT22;690;51.454;7.194;2023-04-03T08:16:12;5.40;99.90
1391;DHT22;690;51.454;7.194;2023-04-03T08:18:40;5.40;99.90
1391;DHT22;690;51.454;7.194;2023-04-03T08:21:07;5.40;99.90
1391;DHT22;690;51.454;7.194;2023-04-03T08:23:34;5.50;99.90
1391;DHT22;690;51.454;7.194;2023-04-03T08:26:08;5.60;99.90
1391;DHT22;690;51.454;7.194;2023-04-03T08:28:35;5.60;99.90
1391;DHT22;690;51.454;7.194;2023-04-03T08:31:06;5.60;99.90
1391;DHT22;690;51.454;7.194;2023-04-03T08:33:33;5.60;99.90
1391;DHT22;690;51.454;7.194;2023-04-03T08:36:02;5.60;99.90
1391;DHT22;690;51.454;7.194;2023-04-03T08:38:29;5.60;99.90
1391;DHT22;690;51.454;7.194;2023-04-03T08:41:05;5.70;99.90
1391;DHT22;690;51.454;7.194;2023-04-03T08:43:43;5.80;99.90
1391;DHT22;690;51.454;7.194;2023-04-03T08:46:14;5.80;99.90
1391;DHT22;690;51.454;7.194;2023-04-03T08:48:42;5.90;99.90
1391;DHT22;690;51.454;7.194;2023-04-03T08:51:13;6.00;99.90
1391;DHT22;690;51.454;7.194;2023-04-03T08:53:44;6.10;99.90
1391;DHT22;690;51.454;7.194;2023-04-03T08:56:14;6.20;99.90
1391;DHT22;690;51.454;7.194;2023-04-03T08:58:49;6.20;99.90
1391;DHT22;690;51.454;7.194;2023-04-03T09:01:21;6.10;99.90
1391;DHT22;690;51.454;7.194;2023-04-03T09:03:49;6.10;99.90
1391;DHT22;690;51.454;7.194;2023-04-03T09:06:18;6.20;99.90
1391;DHT22;690;51.454;7.194;2023-04-03T09:08:50;6.30;99.90
1391;DHT22;690;51.454;7.194;2023-04-03T09:11:23;6.40;99.90
1391;DHT22;690;51.454;7.194;2023-04-03T09:13:57;6.50;99.90
1391;DHT22;690;51.454;7.194;2023-04-03T09:16:35;6.60;99.90
1391;DHT22;690;51.454;7.194;2023-04-03T09:19:11;6.60;99.90
1391;DHT22;690;51.454;7.194;2023-04-03T09:21:41;6.60;99.90
1391;DHT22;690;51.454;7.194;2023-04-03T09:24:11;6.70;99.90
1391;DHT22;690;51.454;7.194;2023-04-03T09:26:43;6.80;99.90
1391;DHT22;690;51.454;7.194;2023-04-03T09:29:17;6.80;99.90
1391;DHT22;690;51.454;7.194;2023-04-03T09:31:48;6.80;99.90
1391;DHT22;690;51.454;7.194;2023-04-03T09:34:20;6.90;99.90
1391;DHT22;690;51.454;7.194;2023-04-03T09:36:48;7.00;99.90
1391;DHT22;690;51.454;7.194;2023-04-03T09:39:18;7.10;99.90
1391;DHT22;690;51.454;7.194;2023-04-03T09:41:59;7.10;99.90
1391;DHT22;690;51.454;7.194;2023-04-03T09:44:29;7.20;99.90
1391;DHT22;690;51.454;7.194;2023-04-03T09:46:57;7.20;99.90
1391;DHT22;690;51.454;7.194;2023-04-03T09:49:24;7.30;99.90
1391;DHT22;690;51.454;7.194;2023-04-03T09:51:52;7.40;99.90
1391;DHT22;690;51.454;7.194;2023-04-03T09:54:36;7.60;99.90
1391;DHT22;690;51.454;7.194;2023-04-03T09:57:08;7.70;99.90
1391;DHT22;690;51.454;7.194;2023-04-03T09:59:40;7.60;99.90
1391;DHT22;690;51.454;7.194;2023-04-03T10:02:22;7.60;99.90
1391;DHT22;690;51.454;7.194;2023-04-03T10:04:50;7.60;99.90
1391;DHT22;690;51.454;7.194;2023-04-03T10:07:35;7.70;99.90
1391;DHT22;690;51.454;7.194;2023-04-03T10:10:16;7.80;99.90
1391;DHT22;690;51.454;7.194;2023-04-03T10:12:45;7.80;99.90
1391;DHT22;690;51.454;7.194;2023-04-03T10:15:15;7.80;99.90
1391;DHT22;690;51.454;7.194;2023-04-03T10:17:51;7.70;99.90
1391;DHT22;690;51.454;7.194;2023-04-03T10:20:27;7.70;99.90
1391;DHT22;690;51.454;7.194;2023-04-03T10:23:10;7.60;99.90
1391;DHT22;690;51.454;7.194;2023-04-03T10:25:42;7.70;99.90
1391;DHT22;690;51.454;7.194;2023-04-03T10:28:14;7.90;99.90
1391;DHT22;690;51.454;7.194;2023-04-03T10:30:50;8.00;99.90
1391;DHT22;690;51.454;7.194;2023-04-03T10:33:34;8.00;99.90
1391;DHT22;690;51.454;7.194;2023-04-03T10:36:10;8.00;99.90
1391;DHT22;690;51.454;7.194;2023-04-03T10:38:45;8.20;99.90
1391;DHT22;690;51.454;7.194;2023-04-03T10:41:20;8.40;99.90
1391;DHT22;690;51.454;7.194;2023-04-03T10:43:59;8.40;99.90
1391;DHT22;690;51.454;7.194;2023-04-03T10:46:35;8.50;99.90
1391;DHT22;690;51.454;7.194;2023-04-03T10:49:11;8.50;99.90
1391;DHT22;690;51.454;7.194;2023-04-03T10:51:45;8.50;99.90
1391;DHT22;690;51.454;7.194;2023-04-03T10:54:22;8.50;99.90
1391;DHT22;690;51.454;7.194;2023-04-03T10:56:53;8.50;99.90
1391;DHT22;690;51.454;7.194;2023-04-03T10:59:26;8.40;99.90
1391;DHT22;690;51.454;7.194;2023-04-03T11:01:59;8.40;99.90
1391;DHT22;690;51.454;7.194;2023-04-03T11:04:30;8.60;99.90
1391;DHT22;690;51.454;7.194;2023-04-03T11:07:02;8.70;99.90
1391;DHT22;690;51.454;7.194;2023-04-03T11:09:34;8.80;99.90
1391;DHT22;690;51.454;7.194;2023-04-03T11:12:06;8.70;99.90
1391;DHT22;690;51.454;7.194;2023-04-03T11:14:37;8.70;99.90
1391;DHT22;690;51.454;7.194;2023-04-03T11:17:14;8.90;99.90
1391;DHT22;690;51.454;7.194;2023-04-03T11:19:45;9.10;99.90
1391;DHT22;690;51.454;7.194;2023-04-03T11:22:18;9.30;99.90
1391;DHT22;690;51.454;7.194;2023-04-03T11:24:55;9.40;99.90
1391;DHT22;690;51.454;7.194;2023-04-03T11:27:24;9.40;99.90
1391;DHT22;690;51.454;7.194;2023-04-03T11:29:53;9.50;99.90
1391;DHT22;690;51.454;7.194;2023-04-03T11:32:40;9.40;99.90
1391;DHT22;690;51.454;7.194;2023-04-03T11:35:12;9.30;99.90
1391;DHT22;690;51.454;7.194;2023-04-03T11:37:40;9.20;99.90
1391;DHT22;690;51.454;7.194;2023-04-03T11:40:24;9.10;99.90
1391;DHT22;690;51.454;7.194;2023-04-03T11:42:54;9.10;99.90
1391;DHT22;690;51.454;7.194;2023-04-03T11:45:46;9.20;99.90
1391;DHT22;690;51.454;7.194;2023-04-03T11:48:43;9.30;99.90
1391;DHT22;690;51.454;7.194;2023-04-03T11:54:44;9.30;99.90
1391;DHT22;690;51.454;7.194;2023-04-03T11:57:49;9.50;99.90
1391;DHT22;690;51.454;7.194;2023-04-03T12:00:49;9.50;99.90
1391;DHT22;690;51.454;7.194;2023-04-03T12:09:28;9.80;99.90
1391;DHT22;690;51.454;7.194;2023-04-03T12:11:57;9.90;99.90
1391;DHT22;690;51.454;7.194;2023-04-03T12:14:25;9.90;99.90
1391;DHT22;690;51.454;7.194;2023-04-03T12:16:54;10.00;99.90
1391;DHT22;690;51.454;7.194;2023-04-03T12:19:36;10.00;99.90
1391;DHT22;690;51.454;7.194;2023-04-03T12:22:14;9.90;99.90
1391;DHT22;690;51.454;7.194;2023-04-03T12:24:44;10.00;99.90
1391;DHT22;690;51.454;7.194;2023-04-03T12:27:34;10.10;99.90
1391;DHT22;690;51.454;7.194;2023-04-03T12:30:12;10.00;99.90
1391;DHT22;690;51.454;7.194;2023-04-03T12:35:46;10.20;99.90
1391;DHT22;690;51.454;7.194;2023-04-03T12:38:45;10.10;99.90
1391;DHT22;690;51.454;7.194;2023-04-03T12:41:23;10.10;99.90
1391;DHT22;690;51.454;7.194;2023-04-03T12:44:12;10.30;99.90
1391;DHT22;690;51.454;7.194;2023-04-03T12:46:47;10.40;99.90
1391;DHT22;690;51.454;7.194;2023-04-03T12:49:33;10.30;99.90
1391;DHT22;690;51.454;7.194;2023-04-03T12:52:05;10.30;99.90
1391;DHT22;690;51.454;7.194;2023-04-03T12:54:35;10.30;99.90
1391;DHT22;690;51.454;7.194;2023-04-03T12:57:11;10.30;99.90
1391;DHT22;690;51.454;7.194;2023-04-03T12:59:38;10.20;99.90
1391;DHT22;690;51.454;7.194;2023-04-03T13:02:19;10.20;99.90
1391;DHT22;690;51.454;7.194;2023-04-03T13:04:46;10.30;99.90
1391;DHT22;690;51.454;7.194;2023-04-03T13:07:24;10.40;99.90
1391;DHT22;690;51.454;7.194;2023-04-03T13:10:02;10.50;99.90
1391;DHT22;690;51.454;7.194;2023-04-03T13:12:32;10.50;99.90
1391;DHT22;690;51.454;7.194;2023-04-03T13:15:02;10.40;99.90
1391;DHT22;690;51.454;7.194;2023-04-03T13:17:30;10.20;99.90
1391;DHT22;690;51.454;7.194;2023-04-03T13:20:12;10.20;99.90
1391;DHT22;690;51.454;7.194;2023-04-03T13:22:45;10.30;99.90
1391;DHT22;690;51.454;7.194;2023-04-03T13:25:16;10.30;99.90
1391;DHT22;690;51.454;7.194;2023-04-03T13:27:45;10.30;99.90
1391;DHT22;690;51.454;7.194;2023-04-03T13:30:23;10.20;99.90
1391;DHT22;690;51.454;7.194;2023-04-03T13:32:51;10.30;99.90
1391;DHT22;690;51.454;7.194;2023-04-03T13:35:34;10.40;99.90
1391;DHT22;690;51.454;7.194;2023-04-03T13:38:07;10.50;99.90
1391;DHT22;690;51.454;7.194;2023-04-03T13:40:49;10.50;99.90
1391;DHT22;690;51.454;7.194;2023-04-03T13:43:23;10.30;99.90
1391;DHT22;690;51.454;7.194;2023-04-03T13:48:41;10.40;99.90
1391;DHT22;690;51.454;7.194;2023-04-03T13:51:18;10.30;99.90
1391;DHT22;690;51.454;7.194;2023-04-03T13:53:48;10.30;99.90
1391;DHT22;690;51.454;7.194;2023-04-03T13:56:23;10.40;99.90
1391;DHT22;690;51.454;7.194;2023-04-03T13:59:03;10.60;99.90
1391;DHT22;690;51.454;7.194;2023-04-03T14:01:41;10.70;99.90
1391;DHT22;690;51.454;7.194;2023-04-03T14:04:14;10.60;99.90
1391;DHT22;690;51.454;7.194;2023-04-03T14:06:42;10.50;99.90
1391;DHT22;690;51.454;7.194;2023-04-03T14:09:10;10.60;99.90
1391;DHT22;690;51.454;7.194;2023-04-03T14:11:37;10.50;99.90
1391;DHT22;690;51.454;7.194;2023-04-03T14:14:13;10.60;99.90
1391;DHT22;690;51.454;7.194;2023-04-03T14:16:43;10.60;99.90
1391;DHT22;690;51.454;7.194;2023-04-03T14:19:18;10.70;99.90
1391;DHT22;690;51.454;7.194;2023-04-03T14:21:46;10.70;99.90
1391;DHT22;690;51.454;7.194;2023-04-03T14:24:13;10.70;99.90
1391;DHT22;690;51.454;7.194;2023-04-03T14:26:40;10.60;99.90
1391;DHT22;690;51.454;7.194;2023-04-03T14:29:11;10.60;99.90
1391;DHT22;690;51.454;7.194;2023-04-03T14:31:38;10.60;99.90
1391;DHT22;690;51.454;7.194;2023-04-03T14:34:05;10.60;99.90
1391;DHT22;690;51.454;7.194;2023-04-03T14:36:33;10.80;99.90
1391;DHT22;690;51.454;7.194;2023-04-03T14:39:00;10.80;99.90
1391;DHT22;690;51.454;7.194;2023-04-03T14:41:27;10.80;99.90
1391;DHT22;690;51.454;7.194;2023-04-03T14:43:54;10.90;99.90
1391;DHT22;690;51.454;7.194;2023-04-03T14:46:27;10.90;99.90
1391;DHT22;690;51.454;7.194;2023-04-03T14:48:55;11.00;99.90
1391;DHT22;690;51.454;7.194;2023-04-03T14:51:22;11.00;99.90
1391;DHT22;690;51.454;7.194;2023-04-03T14:53:49;11.00;99.90
1391;DHT22;690;51.454;7.194;2023-04-03T14:56:19;10.90;99.90
1391;DHT22;690;51.454;7.194;2023-04-03T14:58:48;10.90;99.90
1391;DHT22;690;51.454;7.194;2023-04-03T15:01:16;11.00;99.90
1391;DHT22;690;51.454;7.194;2023-04-03T15:03:44;11.00;99.90
1391;DHT22;690;51.454;7.194;2023-04-03T15:06:13;11.00;99.90
1391;DHT22;690;51.454;7.194;2023-04-03T15:08:41;11.10;99.90
1391;DHT22;690;51.454;7.194;2023-04-03T15:11:09;11.10;99.90
1391;DHT22;690;51.454;7.194;2023-04-03T15:13:36;11.10;99.90
1391;DHT22;690;51.454;7.194;2023-04-03T15:16:04;11.00;99.90
1391;DHT22;690;51.454;7.194;2023-04-03T15:18:35;11.00;99.90
1391;DHT22;690;51.454;7.194;2023-04-03T15:21:04;10.90;99.90
1391;DHT22;690;51.454;7.194;2023-04-03T15:23:31;11.00;99.90
1391;DHT22;690;51.454;7.194;2023-04-03T15:25:58;11.00;99.90
1391;DHT22;690;51.454;7.194;2023-04-03T15:28:28;11.00;99.90
1391;DHT22;690;51.454;7.194;2023-04-03T15:30:56;11.00;99.90
1391;DHT22;690;51.454;7.194;2023-04-03T15:33:24;11.00;99.90
1391;DHT22;690;51.454;7.194;2023-04-03T15:35:51;10.90;99.90
1391;DHT22;690;51.454;7.194;2023-04-03T15:38:19;11.00;99.90
1391;DHT22;690;51.454;7.194;2023-04-03T15:40:46;10.90;99.90
1391;DHT22;690;51.454;7.194;2023-04-03T15:43:15;11.00;99.90
1391;DHT22;690;51.454;7.194;2023-04-03T15:45:42;11.20;99.90
1391;DHT22;690;51.454;7.194;2023-04-03T15:48:10;11.40;99.90
1391;DHT22;690;51.454;7.194;2023-04-03T15:50:38;11.60;99.90
1391;DHT22;690;51.454;7.194;2023-04-03T15:53:06;11.60;99.90
1391;DHT22;690;51.454;7.194;2023-04-03T15:55:35;11.60;99.90
1391;DHT22;690;51.454;7.194;2023-04-03T15:58:03;11.80;99.90
1391;DHT22;690;51.454;7.194;2023-04-03T16:00:30;11.90;99.90
1391;DHT22;690;51.454;7.194;2023-04-03T16:03:00;12.10;99.90
1391;DHT22;690;51.454;7.194;2023-04-03T16:05:29;12.30;99.90
1391;DHT22;690;51.454;7.194;2023-04-03T16:07:57;12.40;99.90
1391;DHT22;690;51.454;7.194;2023-04-03T16:10:25;12.50;99.90
1391;DHT22;690;51.454;7.194;2023-04-03T16:12:53;12.60;99.90
1391;DHT22;690;51.454;7.194;2023-04-03T16:15:20;12.90;99.90
1391;DHT22;690;51.454;7.194;2023-04-03T16:17:47;13.00;99.90
1391;DHT22;690;51.454;7.194;2023-04-03T16:20:14;13.20;99.90
1391;DHT22;690;51.454;7.194;2023-04-03T16:22:44;13.50;99.90
1391;DHT22;690;51.454;7.194;2023-04-03T16:25:11;13.90;99.90
1391;DHT22;690;51.454;7.194;2023-04-03T16:27:40;14.20;99.90
1391;DHT22;690;51.454;7.194;2023-04-03T16:30:09;14.60;99.90
1391;DHT22;690;51.454;7.194;2023-04-03T16:32:37;14.80;99.90
1391;DHT22;690;51.454;7.194;2023-04-03T16:35:05;15.00;99.90
1391;DHT22;690;51.454;7.194;2023-04-03T16:37:32;15.30;99.90
1391;DHT22;690;51.454;7.194;2023-04-03T16:39:59;15.50;99.90
1391;DHT22;690;51.454;7.194;2023-04-03T16:42:26;15.60;99.90
1391;DHT22;690;51.454;7.194;2023-04-03T16:44:52;15.80;99.90
1391;DHT22;690;51.454;7.194;2023-04-03T16:47:21;16.20;99.90
1391;DHT22;690;51.454;7.194;2023-04-03T16:49:47;16.80;99.90
1391;DHT22;690;51.454;7.194;2023-04-03T16:52:14;17.00;99.90
1391;DHT22;690;51.454;7.194;2023-04-03T16:54:41;16.90;99.90
1391;DHT22;690;51.454;7.194;2023-04-03T16:57:08;16.70;99.90
1391;DHT22;690;51.454;7.194;2023-04-03T16:59:35;16.70;99.90
1391;DHT22;690;51.454;7.194;2023-04-03T17:02:02;16.80;99.90
1391;DHT22;690;51.454;7.194;2023-04-03T17:04:30;17.00;99.90
1391;DHT22;690;51.454;7.194;2023-04-03T17:06:57;17.00;99.90
1391;DHT22;690;51.454;7.194;2023-04-03T17:09:25;17.00;99.90
1391;DHT22;690;51.454;7.194;2023-04-03T17:11:52;16.90;99.90
1391;DHT22;690;51.454;7.194;2023-04-03T17:14:19;16.80;99.90